createdAt,value
2023-03-21T00:00:56.063Z,9.70
2023-03-21T00:03:26.752Z,9.81
2023-03-21T00:05:55.003Z,9.63
2023-03-21T00:08:25.864Z,9.73
2023-03-21T00:10:58.379Z,9.69
2023-03-21T00:13:28.204Z,9.77
2023-03-21T00:16:06.696Z,9.80
2023-03-21T00:18:58.199Z,9.76
2023-03-21T00:22:03.633Z,9.76
2023-03-21T00:24:20.916Z,9.76
2023-03-21T00:26:49.277Z,9.70
2023-03-21T00:29:19.331Z,9.72
2023-03-21T00:31:48.325Z,9.81
2023-03-21T00:34:22.717Z,9.80
2023-03-21T00:37:01.583Z,9.73
2023-03-21T00:39:29.809Z,9.65
2023-03-21T00:41:57.965Z,9.70
2023-03-21T00:44:26.325Z,9.77
2023-03-21T00:47:06.451Z,9.73
2023-03-21T00:49:38.401Z,9.70
2023-03-21T00:52:17.058Z,9.72
2023-03-21T00:54:48.566Z,9.63
2023-03-21T00:57:16.929Z,9.68
2023-03-21T00:59:45.976Z,9.79
2023-03-21T01:02:22.544Z,9.77
2023-03-21T01:04:52.546Z,9.88
2023-03-21T01:07:20.947Z,9.91
2023-03-21T01:09:49.197Z,9.76
2023-03-21T01:12:20.249Z,9.54
2023-03-21T01:14:48.542Z,9.74
2023-03-21T01:17:16.816Z,9.77
2023-03-21T01:19:52.077Z,9.63
2023-03-21T01:22:22.180Z,9.81
2023-03-21T01:24:55.507Z,9.95
2023-03-21T01:27:28.815Z,9.63
2023-03-21T01:29:57.809Z,9.63
2023-03-21T01:32:27.096Z,9.68
2023-03-21T01:34:55.380Z,9.91
2023-03-21T01:37:26.507Z,10.11
2023-03-21T01:39:54.661Z,9.91
2023-03-21T01:42:23.725Z,9.87
2023-03-21T01:44:59.804Z,9.89
2023-03-21T01:47:36.742Z,9.94
2023-03-21T01:50:22.337Z,9.82
2023-03-21T01:53:06.456Z,9.87
2023-03-21T01:55:37.422Z,10.06
2023-03-21T01:58:14.109Z,9.88
2023-03-21T02:00:53.918Z,9.71
2023-03-21T02:03:50.278Z,9.84
2023-03-21T02:06:40.057Z,9.94
2023-03-21T02:09:28.766Z,9.69
2023-03-21T02:11:57.814Z,9.76
2023-03-21T02:14:34.385Z,9.88
2023-03-21T02:17:18.324Z,10.12
2023-03-21T02:20:51.040Z,10.20
2023-03-21T02:24:12.310Z,10.01
2023-03-21T02:27:03.836Z,10.08
2023-03-21T02:30:30.461Z,10.06
2023-03-21T02:33:52.590Z,10.30
2023-03-21T02:37:03.040Z,10.38
2023-03-21T02:39:46.778Z,10.37
2023-03-21T02:42:22.103Z,10.48
2023-03-21T02:45:01.335Z,10.53
2023-03-21T02:47:35.761Z,10.40
2023-03-21T02:50:12.675Z,10.56
2023-03-21T02:52:47.033Z,10.61
2023-03-21T02:55:21.882Z,10.73
2023-03-21T02:58:10.426Z,10.66
2023-03-21T03:00:44.077Z,10.64
2023-03-21T03:03:24.981Z,10.75
2023-03-21T03:06:03.537Z,10.79
2023-03-21T03:08:59.549Z,10.72
2023-03-21T03:11:34.630Z,10.64
2023-03-21T03:14:53.149Z,10.75
2023-03-21T03:17:44.677Z,10.70
2023-03-21T03:20:31.519Z,10.78
2023-03-21T03:23:13.021Z,10.78
2023-03-21T03:25:51.112Z,10.80
2023-03-21T03:28:24.337Z,10.73
2023-03-21T03:31:08.136Z,10.82
2023-03-21T03:33:52.048Z,10.77
2023-03-21T03:36:32.114Z,10.55
2023-03-21T03:39:10.317Z,10.78
2023-03-21T03:42:15.252Z,10.75
2023-03-21T03:44:43.043Z,10.70
2023-03-21T03:47:31.726Z,10.65
2023-03-21T03:50:09.579Z,10.84
2023-03-21T03:52:55.238Z,10.87
2023-03-21T03:55:28.180Z,10.73
2023-03-21T03:58:06.401Z,10.79
2023-03-21T04:00:40.940Z,10.71
2023-03-21T04:03:09.818Z,10.85
2023-03-21T04:05:38.376Z,10.78
2023-03-21T04:08:07.572Z,10.92
2023-03-21T04:10:42.452Z,10.91
2023-03-21T04:13:13.000Z,10.97
2023-03-21T04:15:49.848Z,10.91
2023-03-21T04:18:18.239Z,11.03
2023-03-21T04:20:48.451Z,10.99
2023-03-21T04:23:18.797Z,11.02
2023-03-21T04:25:56.415Z,10.77
2023-03-21T04:28:30.118Z,10.80
2023-03-21T04:31:28.370Z,10.90
2023-03-21T04:34:09.887Z,10.89
2023-03-21T04:36:42.885Z,11.00
2023-03-21T04:39:13.090Z,10.77
2023-03-21T04:41:44.160Z,10.78
2023-03-21T04:44:17.004Z,10.50
2023-03-21T04:46:46.420Z,10.53
2023-03-21T04:49:15.296Z,10.30
2023-03-21T04:51:46.116Z,10.53
2023-03-21T04:54:18.943Z,10.42
2023-03-21T04:56:47.142Z,10.47
2023-03-21T04:59:17.616Z,10.47
2023-03-21T05:01:46.436Z,10.56
2023-03-21T05:04:15.675Z,10.67
2023-03-21T05:06:44.848Z,10.79
2023-03-21T05:09:14.830Z,10.52
2023-03-21T05:11:43.753Z,10.69
2023-03-21T05:14:19.567Z,10.70
2023-03-21T05:16:53.187Z,10.73
2023-03-21T05:19:24.137Z,10.72
2023-03-21T05:21:53.173Z,10.77
2023-03-21T05:24:24.459Z,10.97
2023-03-21T05:26:56.108Z,10.87
2023-03-21T05:29:30.073Z,10.74
2023-03-21T05:32:08.568Z,10.78
2023-03-21T05:34:36.788Z,10.63
2023-03-21T05:37:05.680Z,10.53
2023-03-21T05:39:49.651Z,10.12
2023-03-21T05:42:25.610Z,10.00
2023-03-21T05:44:55.823Z,10.04
2023-03-21T05:47:29.823Z,9.85
2023-03-21T05:50:00.728Z,9.62
2023-03-21T05:52:29.664Z,9.43
2023-03-21T05:54:58.585Z,9.56
2023-03-21T05:57:28.847Z,9.62
2023-03-21T06:00:01.601Z,9.42
2023-03-21T06:02:32.253Z,9.35
2023-03-21T06:05:05.208Z,9.43
2023-03-21T06:07:33.909Z,9.41
2023-03-21T06:10:02.102Z,9.17
2023-03-21T06:12:31.377Z,9.30
2023-03-21T06:15:22.726Z,9.44
2023-03-21T06:17:58.736Z,9.28
2023-03-21T06:20:30.600Z,9.17
2023-03-21T06:23:06.110Z,9.01
2023-03-21T06:25:35.003Z,8.92
2023-03-21T06:28:03.268Z,9.05
2023-03-21T06:30:33.875Z,9.01
2023-03-21T06:33:29.103Z,9.23
2023-03-21T06:35:59.579Z,9.27
2023-03-21T06:38:28.094Z,9.20
2023-03-21T06:40:56.281Z,9.21
2023-03-21T06:43:26.808Z,9.15
2023-03-21T06:45:56.536Z,9.27
2023-03-21T06:48:24.948Z,9.27
2023-03-21T06:50:54.540Z,9.63
2023-03-21T06:53:27.397Z,9.75
2023-03-21T06:56:16.839Z,9.83
2023-03-21T06:58:46.685Z,9.96
2023-03-21T07:01:27.751Z,10.03
2023-03-21T07:04:04.784Z,9.81
2023-03-21T07:06:33.603Z,9.87
2023-03-21T07:09:03.019Z,9.83
2023-03-21T07:11:33.795Z,9.92
2023-03-21T07:14:02.741Z,9.72
2023-03-21T07:16:32.361Z,9.74
2023-03-21T07:19:00.714Z,9.77
2023-03-21T07:21:29.077Z,9.70
2023-03-21T07:23:57.477Z,9.77
2023-03-21T07:26:25.723Z,9.92
2023-03-21T07:28:53.971Z,10.05
2023-03-21T07:31:25.918Z,10.14
2023-03-21T07:33:55.574Z,10.12
2023-03-21T07:36:24.739Z,10.13
2023-03-21T07:38:53.158Z,10.09
2023-03-21T07:41:25.232Z,10.29
2023-03-21T07:43:53.685Z,10.24
2023-03-21T07:46:22.074Z,10.17
2023-03-21T07:48:50.332Z,10.35
2023-03-21T07:51:19.899Z,10.36
2023-03-21T07:53:48.726Z,10.24
2023-03-21T07:56:17.090Z,10.24
2023-03-21T07:58:45.279Z,10.50
2023-03-21T08:01:13.507Z,10.64
2023-03-21T08:03:41.800Z,10.69
2023-03-21T08:06:11.546Z,10.68
2023-03-21T08:08:41.318Z,10.35
2023-03-21T08:11:09.607Z,10.63
2023-03-21T08:13:37.842Z,10.57
2023-03-21T08:16:06.968Z,10.65
2023-03-21T08:18:35.365Z,10.75
2023-03-21T08:21:03.853Z,10.80
2023-03-21T08:23:32.060Z,10.86
2023-03-21T08:26:01.997Z,10.88
2023-03-21T08:28:30.220Z,10.90
2023-03-21T08:30:58.697Z,11.15
2023-03-21T08:33:27.397Z,11.29
2023-03-21T08:35:55.671Z,11.51
2023-03-21T08:38:23.998Z,11.35
2023-03-21T08:40:52.247Z,11.32
2023-03-21T08:43:21.752Z,11.26
2023-03-21T08:45:50.603Z,11.30
2023-03-21T08:48:18.890Z,11.20
2023-03-21T08:50:47.350Z,10.98
2023-03-21T08:53:15.688Z,11.13
2023-03-21T08:55:45.162Z,11.14
2023-03-21T08:58:13.876Z,10.92
2023-03-21T09:00:43.487Z,11.02
2023-03-21T09:03:11.879Z,10.68
2023-03-21T09:05:40.703Z,10.64
2023-03-21T09:08:09.170Z,10.69
2023-03-21T09:10:37.451Z,10.71
2023-03-21T09:13:06.062Z,10.72
2023-03-21T09:15:35.445Z,10.71
2023-03-21T09:18:15.010Z,10.98
2023-03-21T09:20:44.999Z,10.79
2023-03-21T09:23:14.563Z,10.87
2023-03-21T09:25:45.580Z,11.06
2023-03-21T09:28:14.609Z,11.41
2023-03-21T09:30:43.153Z,11.32
2023-03-21T09:33:19.128Z,11.59
2023-03-21T09:35:47.287Z,11.77
2023-03-21T09:38:15.553Z,11.95
2023-03-21T09:41:10.798Z,12.09
2023-03-21T09:43:53.836Z,12.17
2023-03-21T09:46:30.892Z,11.97
2023-03-21T09:49:04.641Z,12.26
2023-03-21T09:51:37.100Z,12.18
2023-03-21T09:54:10.150Z,12.47
2023-03-21T09:56:42.405Z,12.74
2023-03-21T09:59:20.307Z,12.90
2023-03-21T10:01:50.797Z,12.75
2023-03-21T10:04:20.630Z,12.84
2023-03-21T10:06:57.750Z,12.63
2023-03-21T10:09:29.149Z,12.97
2023-03-21T10:12:02.702Z,12.36
2023-03-21T10:14:36.329Z,12.68
2023-03-21T10:17:22.946Z,12.70
2023-03-21T10:20:11.988Z,12.48
2023-03-21T10:22:40.916Z,12.37
2023-03-21T10:25:15.658Z,12.25
2023-03-21T10:27:45.145Z,12.64
2023-03-21T10:30:39.665Z,13.02
2023-03-21T10:33:12.875Z,12.90
2023-03-21T10:35:46.127Z,13.10
2023-03-21T10:38:19.712Z,13.09
2023-03-21T10:40:48.192Z,13.02
2023-03-21T10:43:37.727Z,12.90
2023-03-21T10:46:14.490Z,12.73
2023-03-21T10:48:46.843Z,12.94
2023-03-21T10:51:21.839Z,13.14
2023-03-21T10:53:55.037Z,12.75
2023-03-21T10:56:27.709Z,12.81
2023-03-21T10:58:58.534Z,12.83
2023-03-21T11:01:36.721Z,12.68
2023-03-21T11:04:13.722Z,12.60
2023-03-21T11:06:46.756Z,12.55
2023-03-21T11:09:19.574Z,12.60
2023-03-21T11:11:54.241Z,12.44
2023-03-21T11:14:36.922Z,12.66
2023-03-21T11:17:21.976Z,12.59
2023-03-21T11:19:52.103Z,12.51
2023-03-21T11:22:24.132Z,12.61
2023-03-21T11:24:55.406Z,12.17
2023-03-21T11:27:24.695Z,12.19
2023-03-21T11:29:53.569Z,12.30
2023-03-21T11:32:26.071Z,12.42
2023-03-21T11:35:00.975Z,12.46
2023-03-21T11:37:35.159Z,12.71
2023-03-21T11:40:23.259Z,12.83
2023-03-21T11:42:54.185Z,12.66
2023-03-21T11:45:25.538Z,12.63
2023-03-21T11:47:57.184Z,12.42
2023-03-21T11:50:33.809Z,11.90
2023-03-21T11:53:26.904Z,11.80
2023-03-21T11:56:24.097Z,12.05
2023-03-21T11:59:19.915Z,12.12
2023-03-21T12:02:05.680Z,11.91
2023-03-21T12:04:42.172Z,12.10
2023-03-21T12:07:40.458Z,12.50
2023-03-21T12:10:34.182Z,12.76
2023-03-21T12:13:32.241Z,13.09
2023-03-21T12:16:20.980Z,12.54
2023-03-21T12:19:17.637Z,12.55
2023-03-21T12:22:00.283Z,12.63
2023-03-21T12:24:34.462Z,12.63
2023-03-21T12:27:12.491Z,13.01
2023-03-21T12:30:13.844Z,12.48
2023-03-21T12:32:59.393Z,12.44
2023-03-21T12:35:47.519Z,12.68
2023-03-21T12:38:23.826Z,12.61
2023-03-21T12:41:05.917Z,12.77
2023-03-21T12:43:47.527Z,12.77
2023-03-21T12:46:23.544Z,13.15
2023-03-21T12:48:55.089Z,13.58
2023-03-21T12:51:32.307Z,13.45
2023-03-21T12:54:15.788Z,13.45
2023-03-21T12:56:53.787Z,13.43
2023-03-21T12:59:31.098Z,13.59
2023-03-21T13:02:08.382Z,13.65
2023-03-21T13:04:48.412Z,13.53
2023-03-21T13:07:21.839Z,13.52
2023-03-21T13:09:51.258Z,13.68
2023-03-21T13:12:35.463Z,14.15
2023-03-21T13:15:23.967Z,14.26
2023-03-21T13:18:01.535Z,13.84
2023-03-21T13:20:40.198Z,14.33
2023-03-21T13:23:09.557Z,14.54
2023-03-21T13:25:46.081Z,14.46
2023-03-21T13:28:22.220Z,14.09
2023-03-21T13:30:52.615Z,14.01
2023-03-21T13:33:26.213Z,14.14
2023-03-21T13:36:05.538Z,14.15
2023-03-21T13:38:36.367Z,14.08
2023-03-21T13:41:12.967Z,13.65
2023-03-21T13:43:46.350Z,13.61
2023-03-21T13:46:50.379Z,13.97
2023-03-21T13:49:32.199Z,14.04
2023-03-21T13:52:03.168Z,13.91
2023-03-21T13:54:49.593Z,13.95
2023-03-21T13:57:39.637Z,14.29
2023-03-21T14:00:24.048Z,14.38
2023-03-21T14:03:01.008Z,13.85
2023-03-21T14:05:30.316Z,14.04
2023-03-21T14:08:12.713Z,14.06
2023-03-21T14:10:46.053Z,14.25
2023-03-21T14:13:20.179Z,14.28
2023-03-21T14:15:55.849Z,14.22
2023-03-21T14:18:51.840Z,14.23
2023-03-21T14:21:23.741Z,14.08
2023-03-21T14:23:59.330Z,14.87
2023-03-21T14:26:30.937Z,14.82
2023-03-21T14:28:59.822Z,14.87
2023-03-21T14:31:28.256Z,14.68
2023-03-21T14:34:00.892Z,14.66
2023-03-21T14:36:30.666Z,14.45
2023-03-21T14:39:08.097Z,15.10
2023-03-21T14:41:48.221Z,15.24
2023-03-21T14:44:25.458Z,15.15
2023-03-21T14:47:01.529Z,14.99
2023-03-21T14:49:34.080Z,15.09
2023-03-21T14:52:06.654Z,14.87
2023-03-21T14:54:36.469Z,15.31
2023-03-21T14:57:11.324Z,15.49
2023-03-21T14:59:41.504Z,15.79
2023-03-21T15:02:21.491Z,15.83
2023-03-21T15:04:55.408Z,15.88
2023-03-21T15:07:29.688Z,15.94
2023-03-21T15:10:00.911Z,16.07
2023-03-21T15:12:29.038Z,15.89
2023-03-21T15:14:58.233Z,16.49
2023-03-21T15:17:27.262Z,16.27
2023-03-21T15:19:56.762Z,16.17
2023-03-21T15:22:34.142Z,15.62
2023-03-21T15:25:07.206Z,15.78
2023-03-21T15:27:39.630Z,16.42
2023-03-21T15:30:19.163Z,16.62
2023-03-21T15:32:48.481Z,16.65
2023-03-21T15:35:23.574Z,16.59
2023-03-21T15:37:57.565Z,16.74
2023-03-21T15:40:28.568Z,16.31
2023-03-21T15:43:08.358Z,16.72
2023-03-21T15:45:50.070Z,16.16
2023-03-21T15:48:22.548Z,15.96
2023-03-21T15:50:57.493Z,15.19
2023-03-21T15:53:26.364Z,15.20
2023-03-21T15:56:01.936Z,14.97
2023-03-21T15:58:38.652Z,14.87
2023-03-21T16:01:12.171Z,15.04
2023-03-21T16:03:45.930Z,15.02
2023-03-21T16:06:30.352Z,15.05
2023-03-21T16:09:12.136Z,14.77
2023-03-21T16:11:42.806Z,14.86
2023-03-21T16:14:11.561Z,14.91
2023-03-21T16:16:40.000Z,14.90
2023-03-21T16:19:08.498Z,14.99
2023-03-21T16:21:39.117Z,14.84
2023-03-21T16:24:10.312Z,14.76
2023-03-21T16:26:45.086Z,14.70
2023-03-21T16:29:15.775Z,14.98
2023-03-21T16:31:45.093Z,15.29
2023-03-21T16:34:13.540Z,14.83
2023-03-21T16:36:44.408Z,14.72
2023-03-21T16:39:19.359Z,14.88
2023-03-21T16:41:48.988Z,14.80
2023-03-21T16:44:17.320Z,14.89
2023-03-21T16:46:47.041Z,14.83
2023-03-21T16:49:21.936Z,14.96
2023-03-21T16:51:52.993Z,14.95
2023-03-21T16:54:22.776Z,14.67
2023-03-21T16:56:53.442Z,14.64
2023-03-21T16:59:21.833Z,14.49
2023-03-21T17:01:50.562Z,14.55
2023-03-21T17:04:20.312Z,14.60
2023-03-21T17:06:52.873Z,14.34
2023-03-21T17:09:26.168Z,14.20
2023-03-21T17:11:54.356Z,14.30
2023-03-21T17:14:23.014Z,14.37
2023-03-21T17:16:51.313Z,14.44
2023-03-21T17:19:23.876Z,14.59
2023-03-21T17:21:53.535Z,14.53
2023-03-21T17:24:23.512Z,14.38
2023-03-21T17:26:52.293Z,14.46
2023-03-21T17:29:20.733Z,14.58
2023-03-21T17:31:50.728Z,14.59
2023-03-21T17:34:19.473Z,14.60
2023-03-21T17:36:49.771Z,14.54
2023-03-21T17:39:23.902Z,14.04
2023-03-21T17:41:52.850Z,14.12
2023-03-21T17:44:21.595Z,13.94
2023-03-21T17:46:51.743Z,13.93
2023-03-21T17:49:21.020Z,13.96
2023-03-21T17:51:50.312Z,13.83
2023-03-21T17:54:19.824Z,13.82
2023-03-21T17:56:48.341Z,13.66
2023-03-21T17:59:16.600Z,13.68
2023-03-21T18:01:44.781Z,13.71
2023-03-21T18:04:12.968Z,13.57
2023-03-21T18:06:41.741Z,13.41
2023-03-21T18:09:11.667Z,13.38
2023-03-21T18:11:41.827Z,13.31
2023-03-21T18:14:17.655Z,13.36
2023-03-21T18:16:47.941Z,13.45
2023-03-21T18:19:16.090Z,13.71
2023-03-21T18:21:45.263Z,13.41
2023-03-21T18:24:14.439Z,13.58
2023-03-21T18:26:45.996Z,13.52
2023-03-21T18:32:08.564Z,13.52
2023-03-21T18:34:39.389Z,13.24
2023-03-21T18:37:09.124Z,13.34
2023-03-21T18:39:38.966Z,13.43
2023-03-21T18:42:16.745Z,13.48
2023-03-21T18:44:47.858Z,13.38
2023-03-21T18:47:19.443Z,13.35
2023-03-21T18:50:12.657Z,13.36
2023-03-21T18:52:36.682Z,13.14
2023-03-21T18:55:05.385Z,13.05
2023-03-21T18:57:37.928Z,13.25
2023-03-21T19:00:13.323Z,13.20
2023-03-21T19:02:47.533Z,13.00
2023-03-21T19:05:19.438Z,12.98
2023-03-21T19:07:49.073Z,12.96
2023-03-21T19:10:20.681Z,12.93
2023-03-21T19:12:51.547Z,13.01
2023-03-21T19:15:23.935Z,13.27
2023-03-21T19:20:45.282Z,12.93
2023-03-21T19:23:13.752Z,13.03
2023-03-21T19:25:43.717Z,13.06
2023-03-21T19:28:13.390Z,13.19
2023-03-21T19:30:49.761Z,13.16
2023-03-21T19:33:19.918Z,13.09
2023-03-21T19:35:50.221Z,13.04
2023-03-21T19:38:20.062Z,12.93
2023-03-21T19:40:51.534Z,12.87
2023-03-21T19:43:33.121Z,12.96
2023-03-21T19:46:03.188Z,12.69
2023-03-21T19:48:35.727Z,12.75
2023-03-21T19:53:55.573Z,12.66
2023-03-21T19:56:27.087Z,12.54
2023-03-21T19:58:57.544Z,12.79
2023-03-21T20:01:27.541Z,12.56
2023-03-21T20:03:56.104Z,12.52
2023-03-21T20:06:24.483Z,12.69
2023-03-21T20:11:41.920Z,12.55
2023-03-21T20:14:11.581Z,12.67
2023-03-21T20:16:43.308Z,12.49
2023-03-21T20:19:16.046Z,12.64
2023-03-21T20:21:52.918Z,12.40
2023-03-21T20:24:23.003Z,12.10
2023-03-21T20:26:53.461Z,12.07
2023-03-21T20:32:12.089Z,12.16
2023-03-21T20:34:40.544Z,12.13
2023-03-21T20:37:09.716Z,12.12
2023-03-21T20:39:38.280Z,12.10
2023-03-21T20:42:07.132Z,12.11
2023-03-21T20:44:56.834Z,11.98
2023-03-21T20:47:25.530Z,11.84
2023-03-21T20:49:54.352Z,11.95
2023-03-21T20:52:54.785Z,11.87
2023-03-21T20:55:13.123Z,11.77
2023-03-21T20:57:42.369Z,11.81
2023-03-21T21:00:19.483Z,11.89
2023-03-21T21:02:49.372Z,11.66
2023-03-21T21:05:30.697Z,11.72
2023-03-21T21:08:02.959Z,11.63
2023-03-21T21:10:33.732Z,11.52
2023-03-21T21:13:02.652Z,11.52
2023-03-21T21:15:33.538Z,11.68
2023-03-21T21:18:06.127Z,11.44
2023-03-21T21:20:36.082Z,11.45
2023-03-21T21:23:06.266Z,11.42
2023-03-21T21:25:36.177Z,11.34
2023-03-21T21:28:09.614Z,11.29
2023-03-21T21:30:41.795Z,11.27
2023-03-21T21:33:10.207Z,11.16
2023-03-21T21:35:38.457Z,11.16
2023-03-21T21:38:06.987Z,11.22
2023-03-21T21:40:35.168Z,11.34
2023-03-21T21:43:03.929Z,11.17
2023-03-21T21:45:32.792Z,11.33
2023-03-21T21:48:02.563Z,11.40
2023-03-21T21:50:30.810Z,11.25
2023-03-21T21:53:03.509Z,11.33
2023-03-21T21:55:32.335Z,11.31
2023-03-21T21:58:02.045Z,11.36
2023-03-21T22:00:34.081Z,11.34
2023-03-21T22:03:03.873Z,11.41
2023-03-21T22:05:32.450Z,11.38
2023-03-21T22:08:02.826Z,11.36
2023-03-21T22:10:33.417Z,11.21
2023-03-21T22:13:01.602Z,11.20
2023-03-21T22:15:30.296Z,11.21
2023-03-21T22:17:58.808Z,11.47
2023-03-21T22:20:28.390Z,11.38
2023-03-21T22:22:57.058Z,11.27
2023-03-21T22:25:25.446Z,11.37
2023-03-21T22:27:53.685Z,11.47
2023-03-21T22:30:22.027Z,11.32
2023-03-21T22:33:06.248Z,11.38
2023-03-21T22:35:38.194Z,11.26
2023-03-21T22:38:06.396Z,11.15
2023-03-21T22:40:34.645Z,11.07
2023-03-21T22:43:02.917Z,11.23
2023-03-21T22:45:31.129Z,11.27
2023-03-21T22:48:01.263Z,11.00
2023-03-21T22:50:29.923Z,11.14
2023-03-21T22:52:59.500Z,11.20
2023-03-21T22:55:27.611Z,11.11
2023-03-21T22:57:55.753Z,11.19
2023-03-21T23:00:24.081Z,11.34
2023-03-21T23:02:52.296Z,11.33
2023-03-21T23:05:20.650Z,11.35
2023-03-21T23:07:48.794Z,11.33
2023-03-21T23:10:18.796Z,11.27
2023-03-21T23:12:47.031Z,11.30
2023-03-21T23:15:15.288Z,11.17
2023-03-21T23:17:44.133Z,11.32
2023-03-21T23:20:12.793Z,11.31
2023-03-21T23:22:43.889Z,11.27
2023-03-21T23:25:12.741Z,11.39
2023-03-21T23:27:42.463Z,11.36
2023-03-21T23:30:11.245Z,11.19
2023-03-21T23:32:41.697Z,11.25
2023-03-21T23:35:11.360Z,11.32
2023-03-21T23:37:42.511Z,11.36
2023-03-21T23:40:12.483Z,11.36
2023-03-21T23:42:42.071Z,11.35
2023-03-21T23:45:11.497Z,11.23
2023-03-21T23:47:39.879Z,11.38
2023-03-21T23:50:10.208Z,11.27
2023-03-21T23:52:41.369Z,11.22
2023-03-21T23:55:10.331Z,11.39
2023-03-21T23:57:41.578Z,11.25
